PLI421 SPJC-SPHY
Flight info
| Callsign | PLI421 |
|---|---|
| Flight time | 0h 44m |
| Altitude | 37000 |
| Route | VUPUD DCT UTGOL |
| Aircraft | B721/M-SDFGHRWY/C |
Departure
| Time | 2026-05-06 23:14 |
|---|---|
| Airport | Jorge Chávez International Airport (SPJC) |
Arrival
| Time | 2026-05-06 23:58 |
|---|---|
| Airport | Andahuaylas Airport (SPHY) |
| Time | Latitude | Longitude | Altitude | Speed | Heading |
|---|---|---|---|---|---|
| 2026-05-06 22:44 | -12.03172 | -77.11261 | 97 ft | 0 kts | 244° |
| 2026-05-06 23:01 | -12.03169 | -77.11254 | 97 ft | 2 kts | 245° |
| 2026-05-06 23:01 | -12.03163 | -77.11240 | 97 ft | 2 kts | 243° |
| 2026-05-06 23:02 | -12.03156 | -77.11227 | 97 ft | 2 kts | 244° |
| 2026-05-06 23:02 | -12.03153 | -77.11212 | 97 ft | 2 kts | 291° |
| 2026-05-06 23:02 | -12.03161 | -77.11201 | 97 ft | 0 kts | 330° |
| 2026-05-06 23:02 | -12.03156 | -77.11205 | 97 ft | 3 kts | 327° |
| 2026-05-06 23:03 | -12.03121 | -77.11224 | 97 ft | 4 kts | 333° |
| 2026-05-06 23:03 | -12.03109 | -77.11230 | 97 ft | 0 kts | 333° |
| 2026-05-06 23:07 | -12.03097 | -77.11235 | 97 ft | 4 kts | 334° |
| 2026-05-06 23:07 | -12.03047 | -77.11259 | 97 ft | 10 kts | 336° |
| 2026-05-06 23:08 | -12.02968 | -77.11299 | 97 ft | 13 kts | 332° |
| 2026-05-06 23:08 | -12.02884 | -77.11343 | 97 ft | 13 kts | 334° |
| 2026-05-06 23:08 | -12.02791 | -77.11388 | 95 ft | 15 kts | 334° |
| 2026-05-06 23:08 | -12.02684 | -77.11442 | 92 ft | 18 kts | 334° |
| 2026-05-06 23:09 | -12.02561 | -77.11502 | 89 ft | 19 kts | 337° |
| 2026-05-06 23:09 | -12.02438 | -77.11565 | 86 ft | 20 kts | 333° |
| 2026-05-06 23:09 | -12.02302 | -77.11630 | 77 ft | 21 kts | 329° |
| 2026-05-06 23:09 | -12.02172 | -77.11694 | 77 ft | 18 kts | 333° |
| 2026-05-06 23:10 | -12.02064 | -77.11749 | 77 ft | 15 kts | 334° |
| 2026-05-06 23:10 | -12.01965 | -77.11797 | 77 ft | 15 kts | 332° |
| 2026-05-06 23:10 | -12.01873 | -77.11844 | 77 ft | 10 kts | 347° |
| 2026-05-06 23:10 | -12.01817 | -77.11803 | 77 ft | 9 kts | 36° |
| 2026-05-06 23:11 | -12.01753 | -77.11820 | 77 ft | 10 kts | 334° |
| 2026-05-06 23:11 | -12.01675 | -77.11853 | 76 ft | 12 kts | 326° |
| 2026-05-06 23:11 | -12.01590 | -77.11887 | 75 ft | 14 kts | 14° |
| 2026-05-06 23:11 | -12.01553 | -77.11852 | 74 ft | 0 kts | 66° |
| 2026-05-06 23:12 | -12.01552 | -77.11849 | 74 ft | 0 kts | 66° |
| 2026-05-06 23:12 | -12.01544 | -77.11832 | 74 ft | 5 kts | 66° |
| 2026-05-06 23:12 | -12.01523 | -77.11784 | 74 ft | 8 kts | 70° |
| 2026-05-06 23:12 | -12.01540 | -77.11752 | 75 ft | 0 kts | 154° |
| 2026-05-06 23:13 | -12.01541 | -77.11752 | 75 ft | 0 kts | 153° |
| 2026-05-06 23:13 | -12.01627 | -77.11709 | 76 ft | 47 kts | 155° |
| 2026-05-06 23:13 | -12.02180 | -77.11435 | 94 ft | 122 kts | 154° |
| 2026-05-06 23:14 | -12.03049 | -77.11005 | 399 ft | 144 kts | 155° |
| 2026-05-06 23:14 | -12.03962 | -77.10545 | 907 ft | 147 kts | 154° |
| 2026-05-06 23:14 | -12.04907 | -77.10094 | 1423 ft | 148 kts | 155° |
| 2026-05-06 23:14 | -12.05855 | -77.09663 | 1931 ft | 151 kts | 155° |
| 2026-05-06 23:15 | -12.06838 | -77.09203 | 2426 ft | 160 kts | 154° |
| 2026-05-06 23:15 | -12.07887 | -77.08698 | 2962 ft | 169 kts | 153° |
| 2026-05-06 23:15 | -12.08989 | -77.08154 | 3496 ft | 180 kts | 152° |
| 2026-05-06 23:15 | -12.10159 | -77.07561 | 4029 ft | 191 kts | 152° |
| 2026-05-06 23:16 | -12.11383 | -77.06927 | 4555 ft | 200 kts | 151° |
| 2026-05-06 23:16 | -12.12660 | -77.06253 | 5078 ft | 209 kts | 151° |
| 2026-05-06 23:16 | -12.13974 | -77.05547 | 5594 ft | 216 kts | 150° |
| 2026-05-06 23:16 | -12.15344 | -77.04806 | 6101 ft | 224 kts | 152° |
| 2026-05-06 23:17 | -12.16772 | -77.04085 | 6613 ft | 233 kts | 152° |
| 2026-05-06 23:17 | -12.18267 | -77.03335 | 7132 ft | 241 kts | 153° |
| 2026-05-06 23:17 | -12.19806 | -77.02559 | 7648 ft | 248 kts | 153° |
| 2026-05-06 23:17 | -12.21414 | -77.01744 | 8136 ft | 262 kts | 153° |
| 2026-05-06 23:18 | -12.23058 | -77.00752 | 8660 ft | 275 kts | 136° |
| 2026-05-06 23:18 | -12.24270 | -76.99171 | 9195 ft | 286 kts | 122° |
| 2026-05-06 23:18 | -12.25342 | -76.97355 | 9723 ft | 297 kts | 119° |
| 2026-05-06 23:18 | -12.26363 | -76.95448 | 10242 ft | 306 kts | 117° |
| 2026-05-06 23:19 | -12.27383 | -76.93441 | 10734 ft | 322 kts | 117° |
| 2026-05-06 23:19 | -12.28444 | -76.91296 | 11258 ft | 344 kts | 116° |
| 2026-05-06 23:19 | -12.29558 | -76.89008 | 11787 ft | 365 kts | 116° |
| 2026-05-06 23:19 | -12.30735 | -76.86572 | 12316 ft | 384 kts | 116° |
| 2026-05-06 23:20 | -12.31973 | -76.84007 | 12845 ft | 402 kts | 116° |
| 2026-05-06 23:20 | -12.33265 | -76.81332 | 13372 ft | 418 kts | 116° |
| 2026-05-06 23:20 | -12.34595 | -76.78581 | 13893 ft | 432 kts | 116° |
| 2026-05-06 23:20 | -12.35976 | -76.75723 | 14417 ft | 445 kts | 116° |
| 2026-05-06 23:21 | -12.37400 | -76.72779 | 14941 ft | 457 kts | 116° |
| 2026-05-06 23:21 | -12.38854 | -76.69770 | 15462 ft | 467 kts | 116° |
| 2026-05-06 23:21 | -12.40334 | -76.66709 | 15989 ft | 475 kts | 116° |
| 2026-05-06 23:21 | -12.41826 | -76.63619 | 16930 ft | 473 kts | 116° |
| 2026-05-06 23:22 | -12.43298 | -76.60574 | 17974 ft | 468 kts | 116° |
| 2026-05-06 23:22 | -12.44751 | -76.57569 | 18924 ft | 464 kts | 116° |
| 2026-05-06 23:22 | -12.46219 | -76.54533 | 19575 ft | 467 kts | 116° |
| 2026-05-06 23:22 | -12.47706 | -76.51457 | 19577 ft | 484 kts | 116° |
| 2026-05-06 23:23 | -12.49255 | -76.48251 | 19599 ft | 500 kts | 116° |
| 2026-05-06 23:23 | -12.50845 | -76.44957 | 19622 ft | 513 kts | 116° |
| 2026-05-06 23:23 | -12.52474 | -76.41585 | 19678 ft | 525 kts | 116° |
| 2026-05-06 23:23 | -12.54155 | -76.38100 | 19686 ft | 534 kts | 116° |
| 2026-05-06 23:24 | -12.55853 | -76.34580 | 19982 ft | 530 kts | 116° |
| 2026-05-06 23:24 | -12.57476 | -76.31214 | 20912 ft | 513 kts | 116° |
| 2026-05-06 23:24 | -12.59040 | -76.27972 | 22750 ft | 475 kts | 116° |
| 2026-05-06 23:24 | -12.60459 | -76.25028 | 24662 ft | 436 kts | 116° |
| 2026-05-06 23:25 | -12.61738 | -76.22372 | 26307 ft | 401 kts | 116° |
| 2026-05-06 23:25 | -12.62991 | -76.19768 | 26953 ft | 393 kts | 116° |
| 2026-05-06 23:25 | -12.64223 | -76.17208 | 26919 ft | 405 kts | 116° |
| 2026-05-06 23:25 | -12.65510 | -76.14532 | 26921 ft | 417 kts | 116° |
| 2026-05-06 23:26 | -12.66843 | -76.11762 | 27043 ft | 426 kts | 116° |
| 2026-05-06 23:26 | -12.68175 | -76.08989 | 27264 ft | 433 kts | 116° |
| 2026-05-06 23:26 | -12.69535 | -76.06161 | 27482 ft | 440 kts | 116° |
| 2026-05-06 23:26 | -12.70925 | -76.03268 | 27694 ft | 447 kts | 116° |
| 2026-05-06 23:27 | -12.72323 | -76.00358 | 27919 ft | 452 kts | 116° |
| 2026-05-06 23:27 | -12.73770 | -75.97345 | 28220 ft | 456 kts | 116° |
| 2026-05-06 23:27 | -12.75183 | -75.94379 | 28587 ft | 457 kts | 116° |
| 2026-05-06 23:27 | -12.76609 | -75.91363 | 28974 ft | 458 kts | 116° |
| 2026-05-06 23:28 | -12.78034 | -75.88342 | 29326 ft | 460 kts | 116° |
| 2026-05-06 23:28 | -12.79448 | -75.85344 | 29630 ft | 462 kts | 116° |
| 2026-05-06 23:28 | -12.80878 | -75.82312 | 29910 ft | 465 kts | 116° |
| 2026-05-06 23:28 | -12.82318 | -75.79260 | 30187 ft | 467 kts | 116° |
| 2026-05-06 23:29 | -12.83755 | -75.76212 | 30466 ft | 469 kts | 116° |
| 2026-05-06 23:29 | -12.85210 | -75.73126 | 30748 ft | 471 kts | 116° |
| 2026-05-06 23:29 | -12.86648 | -75.70074 | 31017 ft | 472 kts | 116° |
| 2026-05-06 23:29 | -12.88083 | -75.67030 | 31272 ft | 474 kts | 116° |
| 2026-05-06 23:30 | -12.89543 | -75.63927 | 31520 ft | 476 kts | 116° |
| 2026-05-06 23:30 | -12.91008 | -75.60815 | 31760 ft | 478 kts | 116° |
| 2026-05-06 23:30 | -12.92487 | -75.57671 | 31993 ft | 479 kts | 116° |
| 2026-05-06 23:30 | -12.93972 | -75.54515 | 32219 ft | 481 kts | 116° |
| 2026-05-06 23:31 | -12.95450 | -75.51370 | 32435 ft | 483 kts | 116° |
| 2026-05-06 23:31 | -12.96941 | -75.48199 | 32645 ft | 484 kts | 116° |
| 2026-05-06 23:31 | -12.98458 | -75.44971 | 32853 ft | 486 kts | 116° |
| 2026-05-06 23:31 | -12.99954 | -75.41784 | 33051 ft | 487 kts | 116° |
| 2026-05-06 23:32 | -13.01461 | -75.38573 | 33243 ft | 489 kts | 116° |
| 2026-05-06 23:32 | -13.02963 | -75.35375 | 33426 ft | 490 kts | 116° |
| 2026-05-06 23:32 | -13.04463 | -75.32177 | 33605 ft | 491 kts | 115° |
| 2026-05-06 23:32 | -13.05977 | -75.28950 | 33780 ft | 492 kts | 115° |
| 2026-05-06 23:33 | -13.07465 | -75.25774 | 33947 ft | 493 kts | 115° |
| 2026-05-06 23:33 | -13.08986 | -75.22527 | 34113 ft | 495 kts | 115° |
| 2026-05-06 23:33 | -13.10490 | -75.19317 | 34272 ft | 496 kts | 115° |
| 2026-05-06 23:33 | -13.12015 | -75.16061 | 34428 ft | 496 kts | 115° |
| 2026-05-06 23:34 | -13.13541 | -75.12801 | 34580 ft | 497 kts | 115° |
| 2026-05-06 23:34 | -13.15058 | -75.09557 | 34723 ft | 498 kts | 115° |
| 2026-05-06 23:34 | -13.16592 | -75.06278 | 34861 ft | 499 kts | 115° |
| 2026-05-06 23:34 | -13.18125 | -75.03001 | 35001 ft | 500 kts | 115° |
| 2026-05-06 23:35 | -13.19657 | -74.99723 | 35140 ft | 500 kts | 115° |
| 2026-05-06 23:35 | -13.21140 | -74.96549 | 35274 ft | 500 kts | 115° |
| 2026-05-06 23:35 | -13.22683 | -74.93246 | 35414 ft | 501 kts | 115° |
| 2026-05-06 23:35 | -13.24218 | -74.89957 | 35553 ft | 501 kts | 115° |
| 2026-05-06 23:36 | -13.25740 | -74.86697 | 35691 ft | 501 kts | 115° |
| 2026-05-06 23:36 | -13.27277 | -74.83405 | 35830 ft | 500 kts | 115° |
| 2026-05-06 23:36 | -13.28775 | -74.80195 | 35965 ft | 500 kts | 115° |
| 2026-05-06 23:36 | -13.30316 | -74.76890 | 36105 ft | 500 kts | 115° |
| 2026-05-06 23:37 | -13.31840 | -74.73621 | 36243 ft | 499 kts | 115° |
| 2026-05-06 23:37 | -13.33282 | -74.70340 | 36368 ft | 497 kts | 109° |
| 2026-05-06 23:37 | -13.34106 | -74.66782 | 36521 ft | 495 kts | 101° |
| 2026-05-06 23:37 | -13.34827 | -74.63266 | 36658 ft | 495 kts | 103° |
| 2026-05-06 23:38 | -13.35683 | -74.59792 | 36795 ft | 494 kts | 105° |
| 2026-05-06 23:38 | -13.36669 | -74.56304 | 36934 ft | 494 kts | 107° |
| 2026-05-06 23:38 | -13.37698 | -74.52859 | 37072 ft | 493 kts | 107° |
| 2026-05-06 23:38 | -13.38715 | -74.49479 | 37208 ft | 493 kts | 107° |
| 2026-05-06 23:39 | -13.39738 | -74.46048 | 37346 ft | 492 kts | 107° |
| 2026-05-06 23:39 | -13.40756 | -74.42606 | 37484 ft | 491 kts | 107° |
| 2026-05-06 23:39 | -13.41759 | -74.39198 | 37538 ft | 482 kts | 107° |
| 2026-05-06 23:39 | -13.42731 | -74.35893 | 37380 ft | 473 kts | 107° |
| 2026-05-06 23:40 | -13.43698 | -74.32605 | 37095 ft | 465 kts | 107° |
| 2026-05-06 23:40 | -13.44643 | -74.29391 | 36813 ft | 458 kts | 107° |
| 2026-05-06 23:40 | -13.45563 | -74.26260 | 36534 ft | 451 kts | 107° |
| 2026-05-06 23:40 | -13.46483 | -74.23129 | 36251 ft | 444 kts | 107° |
| 2026-05-06 23:41 | -13.47387 | -74.20052 | 35968 ft | 438 kts | 107° |
| 2026-05-06 23:41 | -13.48270 | -74.17046 | 35682 ft | 431 kts | 107° |
| 2026-05-06 23:41 | -13.49148 | -74.14053 | 35295 ft | 424 kts | 107° |
| 2026-05-06 23:41 | -13.50021 | -74.11109 | 34862 ft | 418 kts | 106° |
| 2026-05-06 23:42 | -13.50888 | -74.08224 | 34362 ft | 415 kts | 106° |
| 2026-05-06 23:42 | -13.51772 | -74.05322 | 33844 ft | 411 kts | 106° |
| 2026-05-06 23:42 | -13.52644 | -74.02485 | 33334 ft | 408 kts | 105° |
| 2026-05-06 23:42 | -13.53539 | -73.99702 | 32828 ft | 406 kts | 106° |
| 2026-05-06 23:43 | -13.54485 | -73.96912 | 32290 ft | 397 kts | 106° |
| 2026-05-06 23:43 | -13.55410 | -73.94235 | 31480 ft | 388 kts | 106° |
| 2026-05-06 23:43 | -13.56367 | -73.91625 | 30612 ft | 382 kts | 106° |
| 2026-05-06 23:43 | -13.57311 | -73.89021 | 29740 ft | 376 kts | 105° |
| 2026-05-06 23:44 | -13.58162 | -73.86494 | 28884 ft | 369 kts | 104° |
| 2026-05-06 23:44 | -13.58945 | -73.83929 | 28007 ft | 362 kts | 102° |
| 2026-05-06 23:44 | -13.59625 | -73.81448 | 27151 ft | 355 kts | 101° |
| 2026-05-06 23:44 | -13.60241 | -73.78964 | 26283 ft | 349 kts | 101° |
| 2026-05-06 23:45 | -13.60807 | -73.76487 | 25407 ft | 343 kts | 101° |
| 2026-05-06 23:45 | -13.61333 | -73.74088 | 24546 ft | 338 kts | 101° |
| 2026-05-06 23:45 | -13.61862 | -73.71690 | 23673 ft | 333 kts | 102° |
| 2026-05-06 23:45 | -13.62404 | -73.69351 | 22806 ft | 329 kts | 103° |
| 2026-05-06 23:46 | -13.62984 | -73.67026 | 21924 ft | 322 kts | 105° |
| 2026-05-06 23:46 | -13.63588 | -73.64818 | 21066 ft | 316 kts | 106° |
| 2026-05-06 23:46 | -13.63814 | -73.62557 | 20184 ft | 310 kts | 80° |
| 2026-05-06 23:46 | -13.63001 | -73.60496 | 19305 ft | 304 kts | 52° |
| 2026-05-06 23:47 | -13.61373 | -73.59096 | 18425 ft | 299 kts | 24° |
| 2026-05-06 23:47 | -13.59378 | -73.58458 | 17559 ft | 296 kts | 13° |
| 2026-05-06 23:47 | -13.57331 | -73.58003 | 16685 ft | 293 kts | 11° |
| 2026-05-06 23:47 | -13.55268 | -73.57584 | 15832 ft | 297 kts | 12° |
| 2026-05-06 23:48 | -13.53228 | -73.57003 | 14991 ft | 295 kts | 18° |
| 2026-05-06 23:48 | -13.51296 | -73.56283 | 14273 ft | 276 kts | 24° |
| 2026-05-06 23:48 | -13.49707 | -73.55239 | 14004 ft | 259 kts | 43° |
| 2026-05-06 23:48 | -13.48616 | -73.53774 | 13908 ft | 246 kts | 63° |
| 2026-05-06 23:49 | -13.47991 | -73.52125 | 13682 ft | 239 kts | 70° |
| 2026-05-06 23:49 | -13.47415 | -73.50507 | 13663 ft | 225 kts | 70° |
| 2026-05-06 23:49 | -13.46852 | -73.48983 | 13717 ft | 219 kts | 69° |
| 2026-05-06 23:49 | -13.46325 | -73.47525 | 13939 ft | 206 kts | 72° |
| 2026-05-06 23:50 | -13.45963 | -73.46099 | 14040 ft | 201 kts | 77° |
| 2026-05-06 23:50 | -13.45488 | -73.43101 | 13936 ft | 207 kts | 85° |
| 2026-05-06 23:50 | -13.45441 | -73.41595 | 14022 ft | 199 kts | 91° |
| 2026-05-06 23:51 | -13.45549 | -73.40156 | 14118 ft | 199 kts | 99° |
| 2026-05-06 23:51 | -13.45792 | -73.38889 | 14267 ft | 198 kts | 103° |
| 2026-05-06 23:51 | -13.45794 | -73.38884 | 14267 ft | 198 kts | 103° |
| 2026-05-06 23:51 | -13.46223 | -73.37483 | 14430 ft | 198 kts | 112° |
| 2026-05-06 23:52 | -13.46899 | -73.36218 | 14555 ft | 199 kts | 124° |
| 2026-05-06 23:52 | -13.47696 | -73.35013 | 14683 ft | 201 kts | 124° |
| 2026-05-06 23:52 | -13.48518 | -73.33765 | 14759 ft | 204 kts | 124° |
| 2026-05-06 23:52 | -13.49359 | -73.32526 | 14949 ft | 201 kts | 126° |
| 2026-05-06 23:53 | -13.50220 | -73.31345 | 15076 ft | 203 kts | 128° |
| 2026-05-06 23:53 | -13.51086 | -73.30162 | 15165 ft | 205 kts | 126° |
| 2026-05-06 23:53 | -13.51939 | -73.28949 | 15319 ft | 203 kts | 126° |
| 2026-05-06 23:53 | -13.52800 | -73.27737 | 15440 ft | 203 kts | 127° |
| 2026-05-06 23:54 | -13.53687 | -73.26553 | 15533 ft | 205 kts | 129° |
| 2026-05-06 23:54 | -13.54783 | -73.25537 | 15516 ft | 211 kts | 153° |
| 2026-05-06 23:54 | -13.56147 | -73.24883 | 15600 ft | 208 kts | 161° |
| 2026-05-06 23:54 | -13.57592 | -73.24873 | 15670 ft | 208 kts | 198° |
| 2026-05-06 23:55 | -13.58703 | -73.25795 | 15632 ft | 195 kts | 239° |
| 2026-05-06 23:55 | -13.59255 | -73.26994 | 15563 ft | 180 kts | 243° |
| 2026-05-06 23:55 | -13.59989 | -73.28120 | 15065 ft | 186 kts | 227° |
| 2026-05-06 23:55 | -13.60989 | -73.29023 | 14207 ft | 193 kts | 219° |
| 2026-05-06 23:56 | -13.62093 | -73.29786 | 13608 ft | 181 kts | 208° |
| 2026-05-06 23:56 | -13.63208 | -73.30386 | 13145 ft | 176 kts | 207° |
| 2026-05-06 23:56 | -13.64262 | -73.30972 | 12814 ft | 165 kts | 210° |
| 2026-05-06 23:56 | -13.65259 | -73.31564 | 12608 ft | 162 kts | 211° |
| 2026-05-06 23:57 | -13.66250 | -73.32187 | 12433 ft | 162 kts | 211° |
| 2026-05-06 23:57 | -13.67226 | -73.32809 | 12201 ft | 159 kts | 210° |
| 2026-05-06 23:57 | -13.68189 | -73.33405 | 12003 ft | 155 kts | 214° |
| 2026-05-06 23:57 | -13.69177 | -73.34044 | 11871 ft | 170 kts | 211° |
| 2026-05-06 23:58 | -13.70232 | -73.34719 | 11726 ft | 177 kts | 213° |
| 2026-05-06 23:58 | -13.71170 | -73.35333 | 11656 ft | 130 kts | 208° |
| 2026-05-06 23:58 | -13.71692 | -73.35658 | 11644 ft | 29 kts | 212° |
| 2026-05-06 23:58 | -13.71712 | -73.35671 | 11643 ft | 0 kts | 212° |
| 2026-05-06 23:59 | -13.71714 | -73.35672 | 11643 ft | 0 kts | 213° |
| 2026-05-06 23:59 | -13.71724 | -73.35689 | 11643 ft | 2 kts | 231° |
| 2026-05-06 23:59 | -13.71727 | -73.35683 | 11643 ft | 0 kts | 49° |
| 2026-05-06 23:59 | -13.71700 | -73.35663 | 11644 ft | 8 kts | 32° |
| 2026-05-07 00:00 | -13.71653 | -73.35633 | 11645 ft | 6 kts | 32° |
| 2026-05-07 00:00 | -13.71616 | -73.35609 | 11646 ft | 5 kts | 32° |
| 2026-05-07 00:00 | -13.71575 | -73.35583 | 11647 ft | 9 kts | 32° |
| 2026-05-07 00:00 | -13.71527 | -73.35552 | 11648 ft | 8 kts | 31° |
| 2026-05-07 00:01 | -13.71457 | -73.35508 | 11650 ft | 14 kts | 32° |
| 2026-05-07 00:01 | -13.71352 | -73.35440 | 11652 ft | 18 kts | 31° |
| 2026-05-07 00:01 | -13.71250 | -73.35376 | 11654 ft | 9 kts | 31° |
| 2026-05-07 00:01 | -13.71219 | -73.35339 | 11655 ft | 6 kts | 85° |
| 2026-05-07 00:02 | -13.71229 | -73.35297 | 11655 ft | 5 kts | 120° |
| 2026-05-07 00:02 | -13.71247 | -73.35268 | 11655 ft | 3 kts | 132° |
| 2026-05-07 00:02 | -13.71255 | -73.35264 | 11655 ft | 0 kts | 170° |